createdAt,value
2018-07-04T00:04:56.253Z,18.90
2018-07-04T00:07:37.825Z,18.80
2018-07-04T00:10:21.300Z,18.70
2018-07-04T00:13:04.787Z,18.70
2018-07-04T00:18:29.520Z,18.60
2018-07-04T00:21:12.702Z,18.50
2018-07-04T00:23:54.324Z,18.40
2018-07-04T00:26:38.748Z,18.40
2018-07-04T00:29:21.035Z,18.30
2018-07-04T00:32:02.874Z,18.30
2018-07-04T00:34:46.680Z,18.20
2018-07-04T00:37:35.884Z,18.10
2018-07-04T00:40:22.555Z,18.10
2018-07-04T00:43:06.021Z,18.00
2018-07-04T00:45:48.245Z,18.00
2018-07-04T00:48:33.387Z,17.90
2018-07-04T00:51:15.919Z,17.80
2018-07-04T00:53:58.381Z,17.80
2018-07-04T00:56:39.728Z,17.70
2018-07-04T00:59:21.161Z,18.00
2018-07-04T01:02:05.225Z,17.70
2018-07-04T01:04:50.407Z,17.60
2018-07-04T01:10:11.389Z,17.60
2018-07-04T01:12:53.359Z,17.60
2018-07-04T01:15:34.400Z,17.60
2018-07-04T01:18:16.407Z,17.60
2018-07-04T01:21:02.537Z,17.60
2018-07-04T01:23:46.556Z,17.60
2018-07-04T01:26:28.479Z,17.50
2018-07-04T01:29:11.538Z,17.50
2018-07-04T01:31:53.863Z,17.50
2018-07-04T01:37:12.648Z,17.40
2018-07-04T01:39:53.378Z,17.40
2018-07-04T01:42:35.681Z,17.40
2018-07-04T01:45:17.864Z,17.40
2018-07-04T01:48:02.836Z,17.50
2018-07-04T01:53:21.122Z,17.60
2018-07-04T01:56:03.065Z,17.70
2018-07-04T01:58:44.041Z,17.70
2018-07-04T02:01:29.963Z,17.80
2018-07-04T02:04:13.262Z,17.80
2018-07-04T02:06:55.324Z,17.90
2018-07-04T02:09:37.470Z,18.00
2018-07-04T02:12:21.859Z,18.00
2018-07-04T02:15:03.184Z,18.00
2018-07-04T02:17:46.243Z,18.00
2018-07-04T02:20:32.186Z,18.00
2018-07-04T02:23:12.736Z,17.90
2018-07-04T02:25:54.011Z,18.00
2018-07-04T02:31:14.682Z,18.00
2018-07-04T02:33:55.955Z,18.00
2018-07-04T02:36:41.266Z,18.00
2018-07-04T02:39:21.592Z,17.90
2018-07-04T02:42:03.685Z,17.90
2018-07-04T02:44:45.910Z,17.90
2018-07-04T02:47:29.540Z,17.90
2018-07-04T02:50:11.633Z,17.90
2018-07-04T02:55:31.889Z,17.90
2018-07-04T02:58:14.693Z,17.90
2018-07-04T03:01:00.861Z,17.90
2018-07-04T03:03:42.782Z,17.80
2018-07-04T03:06:26.665Z,17.80
2018-07-04T03:09:08.777Z,17.80
2018-07-04T03:11:48.930Z,17.80
2018-07-04T03:14:31.853Z,17.80
2018-07-04T03:17:14.450Z,17.70
2018-07-04T03:19:55.220Z,17.70
2018-07-04T03:22:38.468Z,17.70
2018-07-04T03:25:20.339Z,17.70
2018-07-04T03:28:01.993Z,17.70
2018-07-04T03:30:43.596Z,17.70
2018-07-04T03:33:26.595Z,17.70
2018-07-04T03:36:08.945Z,17.70
2018-07-04T03:38:50.628Z,17.60
2018-07-04T03:41:33.519Z,17.50
2018-07-04T03:44:14.665Z,17.50
2018-07-04T03:46:57.446Z,17.40
2018-07-04T03:52:15.547Z,17.30
2018-07-04T03:54:57.377Z,17.20
2018-07-04T03:57:39.635Z,17.20
2018-07-04T04:00:21.514Z,17.10
2018-07-04T04:03:08.199Z,17.10
2018-07-04T04:05:49.843Z,17.10
2018-07-04T04:08:32.828Z,17.00
2018-07-04T04:11:13.076Z,17.00
2018-07-04T04:13:53.896Z,17.00
2018-07-04T04:16:35.710Z,17.00
2018-07-04T04:19:20.654Z,17.00
2018-07-04T04:22:02.567Z,17.00
2018-07-04T04:24:44.122Z,16.90
2018-07-04T04:27:26.960Z,16.90
2018-07-04T04:30:08.471Z,16.80
2018-07-04T04:32:52.809Z,16.80
2018-07-04T04:35:33.563Z,16.70
2018-07-04T04:38:16.378Z,16.70
2018-07-04T04:40:58.376Z,16.60
2018-07-04T04:43:41.689Z,16.60
2018-07-04T04:46:24.112Z,16.60
2018-07-04T04:49:05.894Z,16.60
2018-07-04T04:51:47.250Z,16.60
2018-07-04T04:54:31.022Z,16.60
2018-07-04T04:57:14.321Z,16.70
2018-07-04T04:59:55.951Z,16.70
2018-07-04T05:02:36.651Z,16.70
2018-07-04T05:05:19.020Z,16.70
2018-07-04T05:08:00.281Z,16.80
2018-07-04T05:10:42.920Z,16.80
2018-07-04T05:13:24.495Z,16.80
2018-07-04T05:18:42.669Z,16.90
2018-07-04T05:21:24.833Z,16.90
2018-07-04T05:24:05.810Z,16.90
2018-07-04T05:26:48.391Z,17.00
2018-07-04T05:29:31.110Z,17.10
2018-07-04T05:32:12.781Z,17.20
2018-07-04T05:34:55.236Z,17.20
2018-07-04T05:37:37.143Z,17.20
2018-07-04T05:40:18.505Z,17.20
2018-07-04T05:43:00.453Z,17.30
2018-07-04T05:45:46.911Z,17.30
2018-07-04T05:48:27.142Z,17.30
2018-07-04T05:51:07.999Z,17.30
2018-07-04T05:53:49.283Z,17.30
2018-07-04T05:56:34.874Z,17.30
2018-07-04T05:59:16.129Z,17.30
2018-07-04T06:02:01.152Z,17.30
2018-07-04T06:04:42.702Z,17.30
2018-07-04T06:07:31.757Z,17.20
2018-07-04T06:10:13.893Z,17.20
2018-07-04T06:15:33.192Z,17.30
2018-07-04T06:18:14.048Z,17.40
2018-07-04T06:20:57.099Z,17.50
2018-07-04T06:23:43.481Z,17.50
2018-07-04T06:26:26.523Z,17.50
2018-07-04T06:29:13.913Z,17.60
2018-07-04T06:31:58.244Z,17.60
2018-07-04T06:34:41.652Z,17.90
2018-07-04T06:37:22.641Z,17.60
2018-07-04T06:39:52.392Z,17.70
2018-07-04T06:42:22.181Z,17.70
2018-07-04T06:44:53.061Z,17.80
2018-07-04T06:49:56.177Z,17.90
2018-07-04T06:52:27.787Z,18.00
2018-07-04T06:54:57.484Z,18.10
2018-07-04T06:57:29.882Z,18.10
2018-07-04T07:00:00.625Z,18.20
2018-07-04T07:02:31.368Z,18.30
2018-07-04T07:05:13.805Z,18.40
2018-07-04T07:10:31.487Z,18.50
2018-07-04T07:13:15.850Z,18.50
2018-07-04T07:15:57.708Z,18.60
2018-07-04T07:18:41.366Z,18.60
2018-07-04T07:21:21.128Z,18.60
2018-07-04T07:24:01.028Z,18.70
2018-07-04T07:26:40.767Z,18.80
2018-07-04T07:29:20.586Z,18.90
2018-07-04T07:32:00.591Z,19.00
2018-07-04T07:34:40.291Z,19.00
2018-07-04T07:37:20.217Z,19.00
2018-07-04T07:40:00.166Z,19.10
2018-07-04T07:42:39.904Z,19.10
2018-07-04T07:45:20.662Z,19.20
2018-07-04T07:48:00.431Z,19.20
2018-07-04T07:50:40.308Z,19.20
2018-07-04T07:53:20.121Z,19.20
2018-07-04T07:55:59.944Z,19.20
2018-07-04T07:58:39.862Z,19.20
2018-07-04T08:01:19.736Z,19.20
2018-07-04T08:03:59.584Z,19.20
2018-07-04T08:06:39.460Z,19.20
2018-07-04T08:09:19.372Z,19.30
2018-07-04T08:11:59.162Z,19.50
2018-07-04T08:14:39.155Z,19.50
2018-07-04T08:17:19.013Z,19.70
2018-07-04T08:19:58.829Z,19.80
2018-07-04T08:22:38.869Z,19.80
2018-07-04T08:25:19.254Z,20.00
2018-07-04T08:27:59.226Z,20.00
2018-07-04T08:30:38.905Z,20.10
2018-07-04T08:33:18.913Z,20.20
2018-07-04T08:35:58.702Z,20.20
2018-07-04T08:38:38.440Z,20.20
2018-07-04T08:41:18.328Z,20.30
2018-07-04T08:43:58.179Z,20.30
2018-07-04T08:46:37.937Z,20.40
2018-07-04T08:49:17.804Z,20.40
2018-07-04T08:51:57.676Z,20.50
2018-07-04T08:54:37.491Z,20.70
2018-07-04T08:57:17.302Z,20.70
2018-07-04T08:59:57.205Z,20.80
2018-07-04T09:02:37.005Z,21.00
2018-07-04T09:05:16.935Z,21.30
2018-07-04T09:07:56.707Z,21.40
2018-07-04T09:10:36.644Z,21.40
2018-07-04T09:13:16.492Z,21.50
2018-07-04T09:15:56.421Z,21.40
2018-07-04T09:18:36.351Z,21.30
2018-07-04T09:21:16.110Z,21.30
2018-07-04T09:23:55.989Z,21.20
2018-07-04T09:26:35.862Z,21.30
2018-07-04T09:29:16.268Z,21.40
2018-07-04T09:31:56.196Z,21.50
2018-07-04T09:34:36.041Z,21.70
2018-07-04T09:37:15.841Z,21.90
2018-07-04T09:39:55.540Z,22.10
2018-07-04T09:42:35.416Z,22.40
2018-07-04T09:45:15.313Z,22.50
2018-07-04T09:47:55.305Z,22.60
2018-07-04T09:50:35.277Z,22.80
2018-07-04T09:53:15.229Z,22.90
2018-07-04T09:55:55.240Z,23.00
2018-07-04T09:58:35.132Z,23.00
2018-07-04T10:01:20.245Z,23.10
2018-07-04T10:04:00.353Z,23.10
2018-07-04T10:06:40.117Z,23.10
2018-07-04T10:09:19.861Z,23.20
2018-07-04T10:11:59.746Z,23.40
2018-07-04T10:14:39.651Z,23.50
2018-07-04T10:17:19.445Z,23.50
2018-07-04T10:19:59.697Z,23.40
2018-07-04T10:22:39.599Z,23.50
2018-07-04T10:25:19.479Z,23.60
2018-07-04T10:30:33.418Z,23.90
2018-07-04T10:33:13.241Z,24.00
2018-07-04T10:35:53.307Z,24.10
2018-07-04T10:38:33.263Z,24.30
2018-07-04T10:41:13.139Z,24.50
2018-07-04T10:43:52.972Z,24.90
2018-07-04T10:46:32.772Z,25.20
2018-07-04T10:49:12.711Z,25.60
2018-07-04T10:51:53.040Z,26.00
2018-07-04T10:54:33.028Z,26.10
2018-07-04T10:57:12.837Z,26.20
2018-07-04T10:59:52.533Z,26.00
2018-07-04T11:02:32.364Z,26.10
2018-07-04T11:05:12.907Z,26.30
2018-07-04T11:07:52.837Z,26.30
2018-07-04T11:10:32.580Z,26.60
2018-07-04T11:13:12.391Z,27.00
2018-07-04T11:15:52.302Z,27.20
2018-07-04T11:18:32.060Z,27.50
2018-07-04T11:21:13.593Z,27.60
2018-07-04T11:23:53.517Z,27.60
2018-07-04T11:26:33.301Z,27.40
2018-07-04T11:29:13.072Z,27.40
2018-07-04T11:31:53.003Z,27.40
2018-07-04T11:34:32.993Z,27.30
2018-07-04T11:37:12.840Z,27.40
2018-07-04T11:39:52.708Z,27.40
2018-07-04T11:42:32.492Z,27.40
2018-07-04T11:45:12.574Z,27.40
2018-07-04T11:47:40.968Z,27.40
2018-07-04T11:50:08.539Z,27.40
2018-07-04T11:52:36.735Z,27.60
2018-07-04T11:55:04.262Z,27.70
2018-07-04T11:57:31.750Z,27.70
2018-07-04T11:59:59.271Z,27.50
2018-07-04T12:02:26.760Z,27.40
2018-07-04T12:05:06.699Z,27.30
2018-07-04T12:07:34.235Z,27.30
2018-07-04T12:10:01.723Z,27.50
2018-07-04T12:12:29.269Z,27.60
2018-07-04T12:14:56.735Z,27.70
2018-07-04T12:17:24.191Z,27.70
2018-07-04T12:22:19.513Z,27.40
2018-07-04T12:24:47.234Z,27.10
2018-07-04T12:27:14.872Z,27.10
2018-07-04T12:29:42.739Z,27.10
2018-07-04T12:32:10.335Z,27.00
2018-07-04T12:34:37.969Z,26.90
2018-07-04T12:37:05.478Z,26.90
2018-07-04T12:39:33.051Z,26.90
2018-07-04T12:42:01.461Z,27.00
2018-07-04T12:44:29.141Z,26.90
2018-07-04T12:46:56.744Z,26.80
2018-07-04T12:49:28.492Z,26.60
2018-07-04T12:51:56.250Z,26.50
2018-07-04T12:54:28.895Z,26.50
2018-07-04T12:57:08.713Z,26.50
2018-07-04T12:59:48.618Z,26.40
2018-07-04T13:02:28.897Z,26.30
2018-07-04T13:05:08.774Z,26.10
2018-07-04T13:07:48.826Z,26.00
2018-07-04T13:10:28.681Z,25.90
2018-07-04T13:13:08.548Z,25.70
2018-07-04T13:15:48.310Z,25.50
2018-07-04T13:18:28.196Z,25.30
2018-07-04T13:21:08.126Z,25.20
2018-07-04T13:23:48.108Z,25.10
2018-07-04T13:26:28.005Z,24.90
2018-07-04T13:29:07.908Z,24.90
2018-07-04T13:31:47.917Z,25.00
2018-07-04T13:34:28.117Z,25.00
2018-07-04T13:37:08.917Z,24.90
2018-07-04T13:39:48.973Z,24.80
2018-07-04T13:42:28.865Z,24.80
2018-07-04T13:45:08.693Z,24.50
2018-07-04T13:47:48.471Z,24.60
2018-07-04T13:53:02.204Z,24.50
2018-07-04T13:58:16.026Z,24.20
2018-07-04T14:00:55.985Z,24.10
2018-07-04T14:03:36.093Z,23.90
2018-07-04T14:08:49.774Z,23.80
2018-07-04T14:11:29.462Z,23.80
2018-07-04T14:14:09.385Z,23.90
2018-07-04T14:16:49.256Z,24.00
2018-07-04T14:19:29.161Z,24.00
2018-07-04T14:22:09.037Z,24.00
2018-07-04T14:24:48.950Z,24.00
2018-07-04T14:27:29.050Z,24.10
2018-07-04T14:30:09.090Z,24.10
2018-07-04T14:32:49.163Z,24.00
2018-07-04T14:35:28.995Z,24.00
2018-07-04T14:38:10.328Z,24.00
2018-07-04T14:40:50.258Z,23.90
2018-07-04T14:43:30.170Z,23.90
2018-07-04T14:46:10.039Z,23.90
2018-07-04T14:48:49.836Z,24.00
2018-07-04T14:51:29.804Z,24.20
2018-07-04T14:54:09.707Z,24.30
2018-07-04T14:56:49.532Z,24.40
2018-07-04T14:59:29.465Z,24.50
2018-07-04T15:02:09.529Z,24.60
2018-07-04T15:04:49.332Z,24.70
2018-07-04T15:07:29.287Z,24.90
2018-07-04T15:10:09.337Z,25.20
2018-07-04T15:12:49.306Z,25.50
2018-07-04T15:15:29.253Z,25.80
2018-07-04T15:18:09.082Z,26.10
2018-07-04T15:20:48.983Z,26.60
2018-07-04T15:23:28.898Z,27.00
2018-07-04T15:26:08.740Z,27.30
2018-07-04T15:28:48.690Z,27.50
2018-07-04T15:31:28.744Z,28.10
2018-07-04T15:34:08.750Z,29.70
2018-07-04T15:36:48.567Z,30.80
2018-07-04T15:39:29.050Z,31.00
2018-07-04T15:42:10.396Z,30.80
2018-07-04T15:44:50.324Z,31.00
2018-07-04T15:47:30.221Z,30.50
2018-07-04T15:50:09.983Z,30.10
2018-07-04T15:52:49.819Z,29.70
2018-07-04T15:55:29.637Z,29.70
2018-07-04T15:58:10.975Z,29.60
2018-07-04T16:00:50.913Z,29.60
2018-07-04T16:03:30.635Z,30.00
2018-07-04T16:06:10.743Z,30.20
2018-07-04T16:08:50.517Z,29.10
2018-07-04T16:14:04.202Z,27.30
2018-07-04T16:16:45.137Z,26.70
2018-07-04T16:19:25.147Z,25.90
2018-07-04T16:22:04.860Z,25.30
2018-07-04T16:24:45.696Z,24.70
2018-07-04T16:27:25.564Z,24.30
2018-07-04T16:32:39.417Z,23.00
2018-07-04T16:35:19.268Z,22.70
2018-07-04T16:37:59.755Z,22.50
2018-07-04T16:40:39.574Z,22.30
2018-07-04T16:43:20.495Z,22.10
2018-07-04T16:46:00.301Z,21.90
2018-07-04T16:48:40.182Z,21.80
2018-07-04T16:53:53.839Z,21.90
2018-07-04T16:56:36.472Z,22.00
2018-07-04T16:59:16.202Z,22.10
2018-07-04T17:01:56.316Z,22.30
2018-07-04T17:04:36.068Z,22.50
2018-07-04T17:07:15.906Z,23.00
2018-07-04T17:09:57.291Z,23.20
2018-07-04T17:12:36.958Z,23.50
2018-07-04T17:15:16.864Z,23.60
2018-07-04T17:17:56.785Z,23.60
2018-07-04T17:20:36.771Z,23.50
2018-07-04T17:23:16.434Z,23.50
2018-07-04T17:25:56.345Z,23.50
2018-07-04T17:31:22.025Z,23.70
2018-07-04T17:34:03.666Z,24.20
2018-07-04T17:36:43.441Z,25.30
2018-07-04T17:39:23.421Z,26.00
2018-07-04T17:42:04.448Z,25.80
2018-07-04T17:44:44.529Z,25.50
2018-07-04T17:47:24.350Z,25.00
2018-07-04T17:50:04.273Z,24.80
2018-07-04T17:52:44.073Z,24.70
2018-07-04T17:55:23.806Z,24.90
2018-07-04T17:58:03.648Z,24.90
2018-07-04T18:00:43.574Z,24.90
2018-07-04T18:03:23.456Z,24.90
2018-07-04T18:06:03.452Z,24.90
2018-07-04T18:08:43.169Z,25.10
2018-07-04T18:11:24.658Z,25.60
2018-07-04T18:14:04.476Z,26.10
2018-07-04T18:16:44.307Z,26.30
2018-07-04T18:19:26.137Z,26.10
2018-07-04T18:22:05.933Z,25.90
2018-07-04T18:24:45.798Z,25.60
2018-07-04T18:27:26.342Z,25.10
2018-07-04T18:30:06.229Z,24.60
2018-07-04T18:32:46.095Z,24.20
2018-07-04T18:35:26.109Z,24.30
2018-07-04T18:38:06.006Z,24.80
2018-07-04T18:40:47.232Z,25.20
2018-07-04T18:43:27.160Z,25.20
2018-07-04T18:46:07.493Z,25.60
2018-07-04T18:48:47.301Z,26.10
2018-07-04T18:51:27.174Z,25.90
2018-07-04T18:54:07.124Z,26.20
2018-07-04T18:56:47.339Z,26.80
2018-07-04T18:59:27.051Z,27.20
2018-07-04T19:02:07.066Z,27.30
2018-07-04T19:04:46.894Z,27.20
2018-07-04T19:07:26.829Z,27.20
2018-07-04T19:10:06.781Z,27.00
2018-07-04T19:12:46.749Z,26.80
2018-07-04T19:15:27.396Z,26.60
2018-07-04T19:18:07.215Z,26.30
2018-07-04T19:20:47.158Z,26.20
2018-07-04T19:23:27.036Z,25.90
2018-07-04T19:26:06.901Z,25.40
2018-07-04T19:31:20.646Z,24.80
2018-07-04T19:34:00.636Z,24.80
2018-07-04T19:36:40.489Z,24.80
2018-07-04T19:39:20.395Z,24.70
2018-07-04T19:42:00.211Z,24.40
2018-07-04T19:44:40.416Z,24.00
2018-07-04T19:47:20.185Z,23.60
2018-07-04T19:50:00.092Z,23.20
2018-07-04T19:52:40.039Z,22.80
2018-07-04T19:55:19.906Z,22.50
2018-07-04T19:57:59.731Z,22.10
2018-07-04T20:00:43.216Z,21.80
2018-07-04T20:03:24.289Z,21.50
2018-07-04T20:06:05.265Z,21.30
2018-07-04T20:08:44.931Z,21.00
2018-07-04T20:11:24.785Z,20.80
2018-07-04T20:14:05.600Z,20.60
2018-07-04T20:16:45.350Z,20.40
2018-07-04T20:19:25.143Z,20.20
2018-07-04T20:22:05.119Z,20.00
2018-07-04T20:24:45.059Z,19.90
2018-07-04T20:27:24.990Z,19.70
2018-07-04T20:30:04.750Z,19.60
2018-07-04T20:32:45.497Z,19.60
2018-07-04T20:35:25.351Z,19.50
2018-07-04T20:38:05.640Z,19.40
2018-07-04T20:40:45.885Z,19.40
2018-07-04T20:43:25.935Z,19.30
2018-07-04T20:46:05.762Z,19.20
2018-07-04T20:48:45.716Z,19.10
2018-07-04T20:53:59.222Z,18.90
2018-07-04T20:56:39.199Z,19.00
2018-07-04T20:59:18.920Z,18.90
2018-07-04T21:01:58.746Z,18.90
2018-07-04T21:04:38.479Z,18.90
2018-07-04T21:07:18.416Z,18.80
2018-07-04T21:09:58.313Z,18.80
2018-07-04T21:12:38.214Z,18.80
2018-07-04T21:15:18.042Z,18.70
2018-07-04T21:17:57.881Z,18.70
2018-07-04T21:20:37.541Z,18.60
2018-07-04T21:23:17.452Z,18.60
2018-07-04T21:25:57.339Z,18.60
2018-07-04T21:28:37.333Z,18.70
2018-07-04T21:31:17.220Z,18.70
2018-07-04T21:33:57.047Z,18.70
2018-07-04T21:36:37.802Z,18.70
2018-07-04T21:39:17.670Z,18.70
2018-07-04T21:41:57.493Z,18.60
2018-07-04T21:44:37.499Z,18.60
2018-07-04T21:47:17.297Z,18.60
2018-07-04T21:49:57.117Z,18.60
2018-07-04T21:52:37.065Z,18.50
2018-07-04T21:55:16.877Z,18.50
2018-07-04T21:57:56.908Z,18.60
2018-07-04T22:00:36.572Z,18.60
2018-07-04T22:03:16.383Z,18.60
2018-07-04T22:05:56.116Z,18.70
2018-07-04T22:08:36.026Z,18.80
2018-07-04T22:11:15.827Z,18.80
2018-07-04T22:13:55.615Z,18.90
2018-07-04T22:16:35.413Z,18.90
2018-07-04T22:19:15.272Z,19.00
2018-07-04T22:21:55.105Z,19.00
2018-07-04T22:24:35.064Z,19.00
2018-07-04T22:27:14.703Z,18.90
2018-07-04T22:29:54.593Z,18.90
2018-07-04T22:32:34.753Z,18.90
2018-07-04T22:35:14.629Z,18.90
2018-07-04T22:37:54.638Z,18.80
2018-07-04T22:40:34.455Z,18.80
2018-07-04T22:43:14.258Z,18.80
2018-07-04T22:45:54.069Z,18.70
2018-07-04T22:48:34.819Z,18.80
2018-07-04T22:51:14.507Z,18.70
2018-07-04T22:53:54.363Z,18.60
2018-07-04T22:56:34.335Z,18.60
2018-07-04T22:59:14.315Z,18.50
2018-07-04T23:01:59.140Z,18.40
2018-07-04T23:04:40.329Z,18.50
2018-07-04T23:07:28.568Z,18.40
2018-07-04T23:10:14.378Z,18.50
2018-07-04T23:12:57.334Z,18.50
2018-07-04T23:15:38.287Z,18.50
2018-07-04T23:18:19.906Z,18.50
2018-07-04T23:21:02.173Z,18.50
2018-07-04T23:23:46.306Z,18.50
2018-07-04T23:26:31.831Z,18.50
2018-07-04T23:29:16.732Z,18.50
2018-07-04T23:31:58.012Z,18.40
2018-07-04T23:34:40.109Z,18.40
2018-07-04T23:37:23.982Z,18.30
2018-07-04T23:40:06.715Z,18.30
2018-07-04T23:42:49.976Z,18.20
2018-07-04T23:45:34.020Z,18.20
2018-07-04T23:50:53.574Z,18.10
2018-07-04T23:53:35.926Z,18.10
2018-07-04T23:56:22.360Z,18.00
2018-07-04T23:59:04.341Z,18.00
